Date,TemperatureHighF,TemperatureAvgF,TemperatureLowF,DewpointHighF,DewpointAvgF,DewpointLowF,HumidityHigh,HumidityAvg,HumidityLow,PressureMaxIn,PressureMinIn,WindSpeedMaxMPH,WindSpeedAvgMPH,GustSpeedMaxMPH,PrecipitationSumIn
2013-4-1,66.0,54.5,47.3,54.0,48.1,45.0,93,80,58,30.16,30.07,8,1,12,0.00
2013-4-2,67.7,57.0,48.7,54.0,50.1,47.0,96,79,58,30.10,29.98,9,2,12,0.00
2013-4-3,75.2,60.8,50.7,55.0,51.7,48.0,96,75,39,30.08,29.98,8,2,10,0.01
2013-4-4,73.0,59.1,51.0,56.0,52.9,50.0,97,81,55,30.10,29.99,9,2,11,0.00
2013-4-5,66.8,58.1,52.1,57.0,53.3,51.0,96,84,67,30.07,29.98,12,3,15,0.00
2013-4-6,68.4,58.2,50.8,55.0,51.7,42.0,97,80,52,30.07,29.95,13,3,17,0.01
2013-4-7,74.1,61.7,53.8,56.0,50.9,43.0,90,69,34,29.95,29.79,17,4,19,0.00
2013-4-8,64.7,57.8,51.1,52.0,40.6,32.0,93,57,32,29.84,29.66,10,2,20,0.00
2013-4-9,75.7,61.4,49.1,34.0,28.6,18.0,50,31,12,30.01,29.84,5,1,14,0.00
2013-4-10,84.6,69.8,55.2,35.0,23.9,14.0,40,20,8,30.09,29.95,6,1,12,0.00
2013-4-11,74.2,61.0,51.9,50.0,43.1,34.0,91,55,25,29.98,29.76,11,3,17,0.00
2013-4-12,69.6,57.0,50.5,53.0,50.6,49.0,96,81,55,29.89,29.77,11,2,12,0.00
2013-4-13,60.1,54.1,50.5,54.0,51.4,50.0,97,91,78,29.91,29.84,6,1,12,0.00
2013-4-14,62.3,54.2,50.1,53.0,49.4,48.0,95,84,68,29.88,29.82,7,2,11,0.00
2013-4-15,63.9,55.3,49.1,52.0,48.8,43.0,93,79,63,29.89,29.82,12,2,14,0.00
2013-4-16,67.0,55.4,44.4,45.0,33.6,23.0,93,50,26,30.01,29.86,10,2,17,0.00
2013-4-17,71.9,60.1,49.0,28.0,22.6,17.0,37,25,13,30.14,30.01,10,2,12,0.00
2013-4-18,77.9,63.4,52.2,29.0,19.8,11.0,31,20,8,30.20,30.10,8,1,13,0.00
2013-4-19,82.9,69.7,56.5,30.0,20.7,15.0,26,16,9,30.16,29.96,7,1,10,0.00
2013-4-20,86.4,73.1,58.0,49.0,37.9,27.0,60,29,14,29.97,29.85,11,1,12,0.00
2013-4-21,80.1,66.1,53.1,53.0,47.2,40.0,96,55,25,29.98,29.90,10,3,13,0.00
2013-4-22,71.1,58.2,51.6,54.0,51.0,47.0,97,80,45,29.99,29.87,9,3,14,0.00
2013-4-23,70.4,58.6,51.8,52.0,50.4,48.0,95,76,50,29.96,29.85,7,2,12,0.00
2013-4-24,58.4,54.8,52.6,55.0,51.6,49.0,95,89,82,29.99,29.89,7,1,10,0.00
2013-4-25,68.1,59.5,52.7,50.0,47.3,44.0,87,66,44,30.11,29.96,9,1,11,0.00
2013-4-26,72.9,61.3,51.0,52.0,48.3,43.0,78,64,44,30.14,30.08,9,2,12,0.00
2013-4-27,74.4,64.7,53.7,57.0,52.7,49.0,94,67,48,30.14,29.97,9,2,13,0.00
2013-4-28,76.8,61.5,52.4,57.0,53.8,51.0,96,78,50,30.00,29.83,8,2,13,0.00
2013-4-29,72.0,59.5,53.1,58.0,54.1,52.0,98,84,60,29.89,29.77,11,3,15,0.00
2013-4-30,63.5,56.8,53.2,54.0,52.2,50.0,96,85,69,29.89,29.82,11,2,13,0.00